首页
METAR-TAF:

METAR-TAF

机场 :

马略卡岛帕尔马机场

帕爾馬, 西班牙

纬度: 39-33N, 经度: 002-44E, 海拔: 4米

当前天气观测

该预报发布于30分钟前的23:30 UTC
风速3节,风向东北
温度 19°C
湿度 88%
气压 1019 hPa
能见度10公里或以上
1500米以下无云,无积雨云

METAR: LEPA 192330Z 05003KT CAVOK 19/17 Q1019 NOSIG

时间: 02:00 (00:00 UTC)

预报

该预报发布于1小时和0分钟前的23:00 UTC
预报有效从20日的 00点(UTC)到 20日的 24点(UTC)
风速3节,风向多变
能见度10公里或以上
少量云层高于3000英尺
成为
从 20日的 10点(UTC)到 20日的 12点(UTC)
风速10节,风向南转西南
成为
从 20日的 17点(UTC)到 20日的 19点(UTC)
风速3节,风向多变

TAF: LEPA 192300Z 2000/2024 VRB03KT 9999 FEW030 TX31/2014Z TN17/2006Z BECMG 2010/2012 21010KT BECMG 2017/2019 VRB03KT

超过4000个机场的气象观测和天气预报(METAR&TAF报告)。

可查询的气象台以黄色和红色小点在地图上表示。

将鼠标移到小点上方,可查看气象台名称。

然后点击查看天气观测和预报。

如需切换地图:点击带黑十字的绿色按钮放大地图;点击带横线的绿色按钮缩小地图;或者点击绿色箭头查看邻近地区的地图。


METAR-TAF: